createdAt,value
2018-05-26T00:01:36.692Z,18.90
2018-05-26T00:04:04.752Z,18.80
2018-05-26T00:06:32.936Z,18.70
2018-05-26T00:09:00.993Z,18.80
2018-05-26T00:11:30.175Z,18.70
2018-05-26T00:13:59.077Z,18.80
2018-05-26T00:16:27.124Z,18.80
2018-05-26T00:18:55.326Z,18.70
2018-05-26T00:21:23.373Z,18.60
2018-05-26T00:23:52.321Z,18.70
2018-05-26T00:26:20.390Z,18.60
2018-05-26T00:28:48.457Z,18.70
2018-05-26T00:31:17.501Z,18.70
2018-05-26T00:33:45.569Z,18.50
2018-05-26T00:36:14.393Z,18.50
2018-05-26T00:38:42.444Z,18.50
2018-05-26T00:41:10.494Z,18.50
2018-05-26T00:43:38.734Z,18.40
2018-05-26T00:46:06.774Z,18.30
2018-05-26T00:48:34.832Z,18.20
2018-05-26T00:51:04.628Z,18.00
2018-05-26T00:53:33.459Z,18.00
2018-05-26T00:56:01.504Z,17.90
2018-05-26T00:58:29.564Z,17.90
2018-05-26T01:00:58.385Z,17.90
2018-05-26T01:03:26.444Z,17.90
2018-05-26T01:05:55.508Z,17.80
2018-05-26T01:08:23.572Z,17.80
2018-05-26T01:10:51.624Z,17.80
2018-05-26T01:13:19.685Z,17.70
2018-05-26T01:15:47.746Z,17.70
2018-05-26T01:18:15.848Z,17.50
2018-05-26T01:20:43.956Z,17.40
2018-05-26T01:23:12.793Z,17.10
2018-05-26T01:25:40.857Z,17.10
2018-05-26T01:28:09.927Z,17.00
2018-05-26T01:30:37.972Z,17.00
2018-05-26T01:33:06.804Z,17.00
2018-05-26T01:35:36.913Z,16.90
2018-05-26T01:38:04.973Z,16.90
2018-05-26T01:40:33.016Z,16.90
2018-05-26T01:43:01.849Z,16.80
2018-05-26T01:45:29.914Z,16.80
2018-05-26T01:47:57.948Z,16.80
2018-05-26T01:50:26.788Z,16.80
2018-05-26T01:52:54.854Z,16.80
2018-05-26T01:55:22.904Z,16.70
2018-05-26T01:57:50.949Z,16.60
2018-05-26T02:00:19.784Z,16.40
2018-05-26T02:02:47.823Z,16.40
2018-05-26T02:05:15.885Z,16.40
2018-05-26T02:07:44.701Z,16.20
2018-05-26T02:10:12.764Z,16.10
2018-05-26T02:12:40.819Z,16.10
2018-05-26T02:15:09.648Z,16.10
2018-05-26T02:17:37.691Z,16.00
2018-05-26T02:20:05.770Z,16.10
2018-05-26T02:22:33.825Z,16.10
2018-05-26T02:25:01.901Z,16.10
2018-05-26T02:27:30.005Z,16.10
2018-05-26T02:29:58.075Z,16.10
2018-05-26T02:32:26.137Z,16.10
2018-05-26T02:34:55.466Z,16.00
2018-05-26T02:37:23.475Z,16.10
2018-05-26T02:39:52.475Z,16.00
2018-05-26T02:42:20.525Z,15.90
2018-05-26T02:44:49.352Z,15.80
2018-05-26T02:47:17.423Z,15.80
2018-05-26T02:49:45.496Z,15.80
2018-05-26T02:52:13.549Z,15.80
2018-05-26T02:54:41.616Z,15.70
2018-05-26T02:57:10.470Z,15.70
2018-05-26T02:59:38.490Z,15.70
2018-05-26T03:02:06.553Z,15.80
2018-05-26T03:04:40.288Z,15.80
2018-05-26T03:07:14.114Z,15.70
2018-05-26T03:09:47.775Z,15.70
2018-05-26T03:12:21.540Z,15.60
2018-05-26T03:14:49.109Z,15.60
2018-05-26T03:17:18.812Z,15.40
2018-05-26T03:19:47.652Z,15.40
2018-05-26T03:22:15.718Z,15.40
2018-05-26T03:24:43.782Z,15.40
2018-05-26T03:27:12.594Z,15.40
2018-05-26T03:29:40.656Z,15.40
2018-05-26T03:32:08.705Z,15.40
2018-05-26T03:34:36.766Z,15.40
2018-05-26T03:37:04.810Z,15.40
2018-05-26T03:39:33.641Z,15.40
2018-05-26T03:42:01.702Z,15.40
2018-05-26T03:44:29.785Z,15.30
2018-05-26T03:46:57.841Z,15.30
2018-05-26T03:49:25.892Z,15.30
2018-05-26T03:51:53.944Z,15.30
2018-05-26T03:54:22.015Z,15.20
2018-05-26T03:57:01.971Z,15.10
2018-05-26T04:02:37.073Z,15.20
2018-05-26T04:05:05.150Z,15.10
2018-05-26T04:07:33.198Z,15.30
2018-05-26T04:10:02.012Z,15.30
2018-05-26T04:12:30.080Z,15.30
2018-05-26T04:14:58.132Z,15.30
2018-05-26T04:17:26.935Z,15.40
2018-05-26T04:19:54.984Z,15.40
2018-05-26T04:22:23.795Z,15.40
2018-05-26T04:24:51.855Z,15.30
2018-05-26T04:27:19.896Z,15.40
2018-05-26T04:29:47.935Z,15.40
2018-05-26T04:32:15.993Z,15.40
2018-05-26T04:34:44.030Z,15.40
2018-05-26T04:37:12.852Z,15.50
2018-05-26T04:39:40.897Z,15.50
2018-05-26T04:42:08.944Z,15.60
2018-05-26T04:44:38.336Z,15.60
2018-05-26T04:47:06.385Z,15.70
2018-05-26T04:49:34.436Z,15.70
2018-05-26T04:52:02.489Z,15.70
2018-05-26T04:54:30.525Z,15.70
2018-05-26T04:56:58.571Z,15.80
2018-05-26T04:59:32.401Z,15.90
2018-05-26T05:02:01.346Z,16.10
2018-05-26T05:04:29.396Z,16.10
2018-05-26T05:07:00.416Z,16.30
2018-05-26T05:09:29.220Z,16.50
2018-05-26T05:11:58.096Z,16.50
2018-05-26T05:14:26.892Z,16.70
2018-05-26T05:16:54.936Z,16.70
2018-05-26T05:19:23.163Z,16.80
2018-05-26T05:21:52.513Z,16.90
2018-05-26T05:24:20.548Z,16.90
2018-05-26T05:26:50.411Z,17.00
2018-05-26T05:29:18.451Z,17.10
2018-05-26T05:31:46.627Z,17.10
2018-05-26T05:34:14.683Z,17.30
2018-05-26T05:36:42.724Z,17.40
2018-05-26T05:39:11.528Z,17.50
2018-05-26T05:41:39.584Z,17.50
2018-05-26T05:44:07.628Z,17.50
2018-05-26T05:46:36.436Z,17.70
2018-05-26T05:49:05.356Z,17.70
2018-05-26T05:51:33.396Z,17.80
2018-05-26T05:54:01.441Z,17.80
2018-05-26T05:56:30.262Z,18.00
2018-05-26T05:58:58.327Z,18.00
2018-05-26T06:01:26.412Z,18.20
2018-05-26T06:03:54.454Z,18.30
2018-05-26T06:06:23.264Z,18.50
2018-05-26T06:08:51.322Z,18.50
2018-05-26T06:11:19.364Z,18.60
2018-05-26T06:13:47.400Z,18.70
2018-05-26T06:16:15.464Z,18.80
2018-05-26T06:18:43.514Z,18.90
2018-05-26T06:21:11.588Z,18.90
2018-05-26T06:23:39.624Z,19.00
2018-05-26T06:26:08.465Z,19.10
2018-05-26T06:28:36.512Z,19.10
2018-05-26T06:31:04.551Z,19.20
2018-05-26T06:33:33.373Z,19.30
2018-05-26T06:36:01.413Z,19.20
2018-05-26T06:38:29.460Z,19.30
2018-05-26T06:40:57.497Z,19.30
2018-05-26T06:43:25.552Z,19.40
2018-05-26T06:45:53.622Z,19.50
2018-05-26T06:48:21.676Z,19.50
2018-05-26T06:50:50.497Z,19.70
2018-05-26T06:53:18.553Z,19.70
2018-05-26T06:55:46.596Z,19.80
2018-05-26T06:58:14.662Z,19.90
2018-05-26T07:00:43.472Z,20.10
2018-05-26T07:03:11.524Z,20.10
2018-05-26T07:05:40.329Z,20.30
2018-05-26T07:08:09.142Z,20.30
2018-05-26T07:10:37.182Z,20.30
2018-05-26T07:13:05.990Z,20.50
2018-05-26T07:15:34.027Z,20.50
2018-05-26T07:18:02.848Z,20.60
2018-05-26T07:20:30.932Z,20.60
2018-05-26T07:22:58.997Z,20.70
2018-05-26T07:25:27.066Z,20.80
2018-05-26T07:27:55.167Z,20.80
2018-05-26T07:30:23.908Z,20.90
2018-05-26T07:32:51.961Z,20.90
2018-05-26T07:35:20.768Z,20.90
2018-05-26T07:37:48.820Z,20.90
2018-05-26T07:40:17.637Z,20.90
2018-05-26T07:42:45.677Z,20.90
2018-05-26T07:45:13.712Z,21.00
2018-05-26T07:47:41.764Z,21.00
2018-05-26T07:50:09.828Z,21.10
2018-05-26T07:52:37.899Z,21.10
2018-05-26T07:55:05.943Z,21.20
2018-05-26T07:57:34.780Z,21.40
2018-05-26T08:00:02.873Z,21.30
2018-05-26T08:02:30.872Z,21.60
2018-05-26T08:04:59.682Z,21.80
2018-05-26T08:07:27.724Z,21.70
2018-05-26T08:09:56.539Z,22.00
2018-05-26T08:12:24.593Z,22.00
2018-05-26T08:14:53.392Z,22.20
2018-05-26T08:17:21.507Z,22.20
2018-05-26T08:19:49.487Z,22.20
2018-05-26T08:22:17.531Z,22.30
2018-05-26T08:24:45.574Z,22.30
2018-05-26T08:27:14.414Z,22.60
2018-05-26T08:29:42.430Z,22.60
2018-05-26T08:32:10.581Z,22.50
2018-05-26T08:34:39.412Z,22.60
2018-05-26T08:37:07.457Z,22.60
2018-05-26T08:39:35.500Z,22.60
2018-05-26T08:42:03.540Z,22.60
2018-05-26T08:44:31.584Z,22.60
2018-05-26T08:46:59.621Z,22.60
2018-05-26T08:49:27.840Z,22.70
2018-05-26T08:51:55.876Z,22.70
2018-05-26T08:54:24.698Z,22.70
2018-05-26T08:56:52.724Z,22.60
2018-05-26T08:59:21.548Z,22.90
2018-05-26T09:01:49.587Z,22.90
2018-05-26T09:04:18.420Z,23.10
2018-05-26T09:06:46.449Z,23.10
2018-05-26T09:09:15.282Z,23.40
2018-05-26T09:11:43.337Z,23.30
2018-05-26T09:14:11.576Z,23.50
2018-05-26T09:16:39.692Z,23.60
2018-05-26T09:19:07.757Z,23.70
2018-05-26T09:21:35.794Z,23.70
2018-05-26T09:24:04.618Z,23.60
2018-05-26T09:26:32.652Z,23.60
2018-05-26T09:29:00.701Z,23.70
2018-05-26T09:31:28.744Z,24.00
2018-05-26T09:33:56.815Z,24.10
2018-05-26T09:36:24.859Z,24.10
2018-05-26T09:38:52.913Z,24.20
2018-05-26T09:41:21.724Z,24.50
2018-05-26T09:43:50.632Z,24.50
2018-05-26T09:46:18.680Z,24.60
2018-05-26T09:48:46.817Z,24.60
2018-05-26T09:51:14.860Z,24.60
2018-05-26T09:53:42.908Z,24.60
2018-05-26T09:56:10.949Z,24.60
2018-05-26T09:58:39.757Z,24.70
2018-05-26T10:01:07.796Z,24.70
2018-05-26T10:03:36.634Z,25.10
2018-05-26T10:06:04.670Z,25.00
2018-05-26T10:08:33.507Z,25.40
2018-05-26T10:11:01.556Z,25.40
2018-05-26T10:13:29.643Z,25.80
2018-05-26T10:15:58.410Z,25.70
2018-05-26T10:18:26.472Z,25.60
2018-05-26T10:20:54.504Z,25.90
2018-05-26T10:23:22.549Z,25.90
2018-05-26T10:25:50.589Z,25.80
2018-05-26T10:28:18.662Z,25.80
2018-05-26T10:30:46.714Z,26.30
2018-05-26T10:33:15.522Z,27.00
2018-05-26T10:35:43.575Z,27.00
2018-05-26T10:38:12.389Z,27.00
2018-05-26T10:40:40.437Z,26.90
2018-05-26T10:43:08.476Z,27.10
2018-05-26T10:45:39.236Z,26.90
2018-05-26T10:48:07.291Z,27.10
2018-05-26T10:50:35.335Z,27.10
2018-05-26T10:53:03.375Z,27.20
2018-05-26T10:55:31.441Z,27.70
2018-05-26T10:57:59.476Z,27.70
2018-05-26T11:00:28.295Z,27.50
2018-05-26T11:02:56.338Z,27.50
2018-05-26T11:05:25.385Z,27.60
2018-05-26T11:07:53.432Z,27.50
2018-05-26T11:10:21.488Z,27.70
2018-05-26T11:12:49.575Z,27.60
2018-05-26T11:15:17.580Z,27.70
2018-05-26T11:17:45.699Z,27.80
2018-05-26T11:20:13.671Z,27.70
2018-05-26T11:22:41.833Z,27.70
2018-05-26T11:25:10.643Z,27.70
2018-05-26T11:27:38.681Z,27.80
2018-05-26T11:30:07.501Z,28.60
2018-05-26T11:32:35.544Z,28.60
2018-05-26T11:35:04.437Z,29.30
2018-05-26T11:37:32.457Z,29.30
2018-05-26T11:40:00.512Z,29.00
2018-05-26T11:42:28.580Z,28.60
2018-05-26T11:44:56.632Z,28.60
2018-05-26T11:47:24.681Z,28.30
2018-05-26T11:49:52.737Z,28.60
2018-05-26T11:52:20.764Z,28.50
2018-05-26T11:54:48.815Z,28.80
2018-05-26T11:57:16.878Z,29.20
2018-05-26T11:59:45.791Z,29.50
2018-05-26T12:02:13.972Z,29.40
2018-05-26T12:04:42.024Z,29.70
2018-05-26T12:07:10.064Z,29.80
2018-05-26T12:09:38.107Z,29.90
2018-05-26T12:12:06.152Z,29.60
2018-05-26T12:14:34.206Z,29.60
2018-05-26T12:17:02.270Z,30.00
2018-05-26T12:19:31.060Z,29.60
2018-05-26T12:21:59.901Z,29.60
2018-05-26T12:24:27.949Z,29.60
2018-05-26T12:26:56.075Z,29.40
2018-05-26T12:29:24.045Z,29.60
2018-05-26T12:31:52.877Z,29.90
2018-05-26T12:34:20.937Z,29.90
2018-05-26T12:36:49.007Z,29.90
2018-05-26T12:39:17.780Z,30.50
2018-05-26T12:41:46.604Z,30.50
2018-05-26T12:44:14.652Z,30.40
2018-05-26T12:46:42.709Z,30.20
2018-05-26T12:49:11.545Z,30.20
2018-05-26T12:51:39.627Z,30.20
2018-05-26T12:54:07.673Z,30.40
2018-05-26T12:56:35.729Z,30.70
2018-05-26T12:59:04.684Z,30.40
2018-05-26T13:01:35.178Z,30.50
2018-05-26T13:04:03.231Z,30.50
2018-05-26T13:06:31.273Z,30.70
2018-05-26T13:08:59.328Z,31.10
2018-05-26T13:11:28.151Z,30.70
2018-05-26T13:13:56.196Z,30.70
2018-05-26T13:16:24.246Z,31.20
2018-05-26T13:18:52.288Z,31.20
2018-05-26T13:21:20.336Z,31.60
2018-05-26T13:23:48.468Z,31.60
2018-05-26T13:26:16.499Z,32.10
2018-05-26T13:28:44.536Z,32.30
2018-05-26T13:31:12.590Z,32.30
2018-05-26T13:33:40.641Z,32.20
2018-05-26T13:36:09.866Z,31.80
2018-05-26T13:38:38.425Z,31.60
2018-05-26T13:41:06.473Z,31.40
2018-05-26T13:43:34.508Z,31.00
2018-05-26T13:46:02.591Z,30.80
2018-05-26T13:48:30.646Z,30.70
2018-05-26T13:50:58.687Z,30.70
2018-05-26T13:53:26.779Z,30.90
2018-05-26T13:55:54.891Z,30.80
2018-05-26T13:58:22.901Z,31.10
2018-05-26T14:00:51.722Z,31.60
2018-05-26T14:03:19.768Z,31.60
2018-05-26T14:05:48.588Z,31.00
2018-05-26T14:08:16.652Z,30.90
2018-05-26T14:10:44.721Z,30.50
2018-05-26T14:13:12.808Z,30.50
2018-05-26T14:15:40.861Z,30.60
2018-05-26T14:18:08.917Z,30.80
2018-05-26T14:20:37.727Z,30.20
2018-05-26T14:23:05.822Z,30.20
2018-05-26T14:25:34.589Z,29.60
2018-05-26T14:28:02.640Z,29.60
2018-05-26T14:30:30.676Z,29.60
2018-05-26T14:32:58.730Z,29.90
2018-05-26T14:35:26.801Z,30.00
2018-05-26T14:37:54.940Z,29.60
2018-05-26T14:40:22.984Z,29.20
2018-05-26T14:42:51.803Z,28.90
2018-05-26T14:45:19.848Z,28.90
2018-05-26T14:47:48.665Z,28.60
2018-05-26T14:50:16.712Z,28.50
2018-05-26T14:52:45.519Z,28.20
2018-05-26T14:55:13.569Z,28.20
2018-05-26T14:57:42.383Z,27.90
2018-05-26T15:00:10.435Z,27.90
2018-05-26T15:02:38.497Z,27.80
2018-05-26T15:05:07.308Z,27.40
2018-05-26T15:07:35.399Z,27.30
2018-05-26T15:10:03.436Z,27.20
2018-05-26T15:12:31.484Z,27.30
2018-05-26T15:15:00.291Z,27.00
2018-05-26T15:17:28.360Z,27.00
2018-05-26T15:19:57.164Z,26.60
2018-05-26T15:22:25.239Z,26.60
2018-05-26T15:24:53.325Z,26.70
2018-05-26T15:27:21.380Z,26.80
2018-05-26T15:29:49.418Z,26.90
2018-05-26T15:32:17.481Z,26.80
2018-05-26T15:34:45.512Z,26.80
2018-05-26T15:37:13.565Z,26.80
2018-05-26T15:39:41.638Z,26.50
2018-05-26T15:42:09.676Z,26.40
2018-05-26T15:44:38.480Z,26.40
2018-05-26T15:47:08.012Z,26.40
2018-05-26T15:49:36.080Z,26.20
2018-05-26T15:52:04.124Z,26.20
2018-05-26T15:54:33.781Z,26.10
2018-05-26T15:57:01.826Z,26.10
2018-05-26T15:59:29.891Z,26.10
2018-05-26T16:01:57.936Z,26.10
2018-05-26T16:04:26.751Z,25.90
2018-05-26T16:06:54.788Z,25.90
2018-05-26T16:09:23.605Z,25.80
2018-05-26T16:11:51.648Z,25.80
2018-05-26T16:14:20.466Z,25.70
2018-05-26T16:16:48.505Z,25.60
2018-05-26T16:19:16.563Z,25.60
2018-05-26T16:21:44.768Z,25.60
2018-05-26T16:24:13.583Z,25.50
2018-05-26T16:26:41.624Z,25.40
2018-05-26T16:29:09.680Z,25.40
2018-05-26T16:31:38.510Z,25.40
2018-05-26T16:34:06.570Z,25.40
2018-05-26T16:36:34.611Z,25.40
2018-05-26T16:39:03.433Z,25.40
2018-05-26T16:41:33.636Z,25.40
2018-05-26T16:44:01.694Z,25.40
2018-05-26T16:46:29.732Z,25.30
2018-05-26T16:48:57.779Z,25.10
2018-05-26T16:51:25.824Z,25.00
2018-05-26T16:53:53.869Z,24.80
2018-05-26T16:56:21.912Z,24.80
2018-05-26T16:58:50.024Z,24.90
2018-05-26T17:01:18.004Z,25.00
2018-05-26T17:03:46.824Z,25.20
2018-05-26T17:06:14.865Z,25.10
2018-05-26T17:08:42.957Z,25.30
2018-05-26T17:11:11.104Z,25.40
2018-05-26T17:13:39.165Z,25.50
2018-05-26T17:16:08.008Z,25.50
2018-05-26T17:18:36.061Z,25.50
2018-05-26T17:21:04.101Z,25.50
2018-05-26T17:23:32.926Z,25.60
2018-05-26T17:26:00.957Z,25.60
2018-05-26T17:28:29.755Z,25.40
2018-05-26T17:30:57.834Z,25.30
2018-05-26T17:33:26.627Z,25.20
2018-05-26T17:35:54.676Z,25.20
2018-05-26T17:38:22.724Z,25.20
2018-05-26T17:40:50.777Z,25.10
2018-05-26T17:43:18.864Z,25.00
2018-05-26T17:45:46.866Z,25.00
2018-05-26T17:48:15.663Z,25.00
2018-05-26T17:50:43.704Z,24.90
2018-05-26T17:53:11.761Z,24.90
2018-05-26T17:55:39.834Z,24.80
2018-05-26T17:58:08.126Z,24.80
2018-05-26T18:00:36.179Z,24.80
2018-05-26T18:03:04.403Z,24.70
2018-05-26T18:05:32.440Z,24.70
2018-05-26T18:08:00.491Z,24.70
2018-05-26T18:10:29.536Z,24.60
2018-05-26T18:12:57.644Z,24.50
2018-05-26T18:15:25.697Z,24.50
2018-05-26T18:17:53.741Z,24.50
2018-05-26T18:20:23.584Z,24.40
2018-05-26T18:22:51.642Z,24.40
2018-05-26T18:25:19.705Z,24.40
2018-05-26T18:27:47.736Z,24.40
2018-05-26T18:30:15.797Z,24.40
2018-05-26T18:32:43.861Z,24.30
2018-05-26T18:35:11.910Z,24.30
2018-05-26T18:37:39.962Z,24.20
2018-05-26T18:40:08.046Z,24.10
2018-05-26T18:42:36.072Z,24.10
2018-05-26T18:45:05.221Z,24.00
2018-05-26T18:47:33.275Z,24.00
2018-05-26T18:50:01.400Z,24.00
2018-05-26T18:52:29.432Z,23.90
2018-05-26T18:54:57.481Z,23.90
2018-05-26T18:57:27.360Z,23.90
2018-05-26T18:59:55.416Z,23.90
2018-05-26T19:02:23.456Z,23.80
2018-05-26T19:04:51.516Z,23.80
2018-05-26T19:07:19.572Z,23.70
2018-05-26T19:09:47.624Z,23.60
2018-05-26T19:12:16.463Z,23.50
2018-05-26T19:14:44.516Z,23.50
2018-05-26T19:17:12.566Z,23.40
2018-05-26T19:19:41.377Z,23.30
2018-05-26T19:22:10.196Z,23.20
2018-05-26T19:24:38.238Z,23.20
2018-05-26T19:27:06.291Z,23.10
2018-05-26T19:29:34.333Z,23.00
2018-05-26T19:32:02.403Z,22.90
2018-05-26T19:34:30.440Z,22.80
2018-05-26T19:36:58.551Z,22.80
2018-05-26T19:39:26.553Z,22.70
2018-05-26T19:41:54.608Z,22.50
2018-05-26T19:44:26.398Z,22.20
2018-05-26T19:46:54.453Z,22.20
2018-05-26T19:49:22.502Z,22.00
2018-05-26T19:51:51.320Z,21.80
2018-05-26T19:54:19.412Z,21.80
2018-05-26T19:56:47.453Z,21.70
2018-05-26T19:59:15.505Z,21.70
2018-05-26T20:01:44.340Z,21.50
2018-05-26T20:04:12.393Z,21.50
2018-05-26T20:06:40.441Z,21.50
2018-05-26T20:09:08.484Z,21.40
2018-05-26T20:11:36.537Z,21.40
2018-05-26T20:14:04.573Z,21.30
2018-05-26T20:16:32.639Z,21.30
2018-05-26T20:19:00.678Z,21.20
2018-05-26T20:21:29.501Z,21.00
2018-05-26T20:23:57.536Z,21.00
2018-05-26T20:26:26.359Z,20.80
2018-05-26T20:28:54.409Z,20.80
2018-05-26T20:31:23.227Z,20.80
2018-05-26T20:33:51.928Z,20.70
2018-05-26T20:36:19.986Z,20.70
2018-05-26T20:38:48.019Z,20.70
2018-05-26T20:41:19.439Z,20.50
2018-05-26T20:43:47.477Z,20.50
2018-05-26T20:46:15.529Z,20.50
2018-05-26T20:48:43.568Z,20.40
2018-05-26T20:51:11.620Z,20.40
2018-05-26T20:53:39.729Z,20.40
2018-05-26T20:56:08.561Z,20.20
2018-05-26T20:58:36.605Z,20.10
2018-05-26T21:01:04.655Z,20.10
2018-05-26T21:03:33.453Z,20.00
2018-05-26T21:06:01.515Z,20.00
2018-05-26T21:08:30.325Z,20.00
2018-05-26T21:10:58.368Z,20.00
2018-05-26T21:13:27.177Z,20.00
2018-05-26T21:15:55.215Z,20.00
2018-05-26T21:18:23.272Z,20.00
2018-05-26T21:20:51.307Z,20.00
2018-05-26T21:23:19.362Z,19.90
2018-05-26T21:25:47.406Z,19.80
2018-05-26T21:28:16.232Z,19.60
2018-05-26T21:30:44.275Z,19.70
2018-05-26T21:33:12.324Z,19.60
2018-05-26T21:35:40.385Z,19.50
2018-05-26T21:38:08.602Z,19.50
2018-05-26T21:40:36.648Z,19.50
2018-05-26T21:43:04.720Z,19.50
2018-05-26T21:45:32.778Z,19.50
2018-05-26T21:48:00.832Z,19.50
2018-05-26T21:50:28.877Z,19.50
2018-05-26T21:52:56.941Z,19.40
2018-05-26T21:55:25.010Z,19.40
2018-05-26T21:57:53.054Z,19.50
2018-05-26T22:00:21.844Z,19.30
2018-05-26T22:02:50.654Z,19.30
2018-05-26T22:05:18.688Z,19.30
2018-05-26T22:07:47.500Z,19.30
2018-05-26T22:10:15.532Z,19.30
2018-05-26T22:12:43.589Z,19.20
2018-05-26T22:15:11.630Z,19.20
2018-05-26T22:17:39.680Z,19.20
2018-05-26T22:20:07.728Z,19.20
2018-05-26T22:22:35.799Z,19.10
2018-05-26T22:25:03.841Z,19.10
2018-05-26T22:27:31.950Z,19.10
2018-05-26T22:29:59.983Z,19.00
2018-05-26T22:32:28.037Z,19.00
2018-05-26T22:34:56.076Z,19.00
2018-05-26T22:37:24.917Z,18.90
2018-05-26T22:39:52.958Z,18.80
2018-05-26T22:42:21.004Z,18.80
2018-05-26T22:44:49.150Z,18.80
2018-05-26T22:47:17.948Z,18.70
2018-05-26T22:49:46.764Z,18.70
2018-05-26T22:52:14.804Z,18.70
2018-05-26T22:54:43.615Z,18.70
2018-05-26T22:57:11.667Z,18.70
2018-05-26T22:59:40.484Z,18.70
2018-05-26T23:02:08.520Z,18.70
2018-05-26T23:04:36.576Z,18.70
2018-05-26T23:07:04.658Z,18.80
2018-05-26T23:09:33.522Z,18.70
2018-05-26T23:12:01.560Z,18.70
2018-05-26T23:14:29.592Z,18.70
2018-05-26T23:16:58.409Z,18.60
2018-05-26T23:19:26.452Z,18.70
2018-05-26T23:21:55.412Z,18.70
2018-05-26T23:24:23.469Z,18.70
2018-05-26T23:26:51.523Z,18.70
2018-05-26T23:29:19.562Z,18.80
2018-05-26T23:31:48.383Z,18.80
2018-05-26T23:34:16.416Z,18.70
2018-05-26T23:36:45.392Z,18.80
2018-05-26T23:39:13.440Z,18.80
2018-05-26T23:41:41.497Z,18.80
2018-05-26T23:44:09.539Z,18.80
2018-05-26T23:46:37.577Z,18.80
2018-05-26T23:49:05.648Z,18.80
2018-05-26T23:51:33.675Z,18.80
2018-05-26T23:54:01.733Z,18.80
2018-05-26T23:56:29.772Z,18.80
2018-05-26T23:58:57.823Z,18.70
